sensor_id;sensor_type;location;lat;lon;timestamp;P1;durP1;ratioP1;P2;durP2;ratioP2
61385;SDS011;47256;18.904;-99.054;2023-12-29T00:01:58;33.58;;;13.25;;
61385;SDS011;47256;18.904;-99.054;2023-12-29T00:04:26;40.97;;;13.52;;
61385;SDS011;47256;18.904;-99.054;2023-12-29T00:07:00;32.55;;;13.23;;
61385;SDS011;47256;18.904;-99.054;2023-12-29T00:09:31;34.90;;;12.23;;
61385;SDS011;47256;18.904;-99.054;2023-12-29T00:12:04;20.35;;;9.57;;
61385;SDS011;47256;18.904;-99.054;2023-12-29T00:14:31;25.85;;;11.40;;
61385;SDS011;47256;18.904;-99.054;2023-12-29T00:16:59;25.30;;;10.82;;
61385;SDS011;47256;18.904;-99.054;2023-12-29T00:19:27;20.38;;;9.07;;
61385;SDS011;47256;18.904;-99.054;2023-12-29T00:21:54;24.88;;;9.88;;
61385;SDS011;47256;18.904;-99.054;2023-12-29T00:24:21;26.98;;;9.88;;
61385;SDS011;47256;18.904;-99.054;2023-12-29T00:26:49;26.73;;;10.10;;
61385;SDS011;47256;18.904;-99.054;2023-12-29T00:29:17;22.00;;;9.10;;
61385;SDS011;47256;18.904;-99.054;2023-12-29T00:31:45;25.10;;;9.20;;
61385;SDS011;47256;18.904;-99.054;2023-12-29T00:34:12;26.38;;;9.02;;
61385;SDS011;47256;18.904;-99.054;2023-12-29T00:36:41;27.85;;;9.10;;
61385;SDS011;47256;18.904;-99.054;2023-12-29T00:39:08;18.50;;;8.95;;
61385;SDS011;47256;18.904;-99.054;2023-12-29T00:41:35;24.15;;;9.70;;
61385;SDS011;47256;18.904;-99.054;2023-12-29T00:44:02;31.45;;;9.80;;
61385;SDS011;47256;18.904;-99.054;2023-12-29T00:46:30;33.28;;;9.82;;
61385;SDS011;47256;18.904;-99.054;2023-12-29T00:48:57;20.38;;;10.15;;
61385;SDS011;47256;18.904;-99.054;2023-12-29T00:51:27;19.55;;;9.07;;
61385;SDS011;47256;18.904;-99.054;2023-12-29T00:53:54;27.58;;;10.18;;
61385;SDS011;47256;18.904;-99.054;2023-12-29T00:56:21;25.83;;;10.63;;
61385;SDS011;47256;18.904;-99.054;2023-12-29T00:58:48;28.63;;;8.93;;
61385;SDS011;47256;18.904;-99.054;2023-12-29T01:01:19;23.73;;;9.73;;
61385;SDS011;47256;18.904;-99.054;2023-12-29T01:03:47;18.27;;;9.32;;
61385;SDS011;47256;18.904;-99.054;2023-12-29T01:06:15;33.33;;;10.20;;
61385;SDS011;47256;18.904;-99.054;2023-12-29T01:08:43;26.75;;;9.93;;
61385;SDS011;47256;18.904;-99.054;2023-12-29T01:11:11;28.80;;;9.57;;
61385;SDS011;47256;18.904;-99.054;2023-12-29T01:13:38;41.63;;;11.20;;
61385;SDS011;47256;18.904;-99.054;2023-12-29T01:16:06;47.80;;;15.32;;
61385;SDS011;47256;18.904;-99.054;2023-12-29T01:18:33;51.67;;;15.65;;
61385;SDS011;47256;18.904;-99.054;2023-12-29T01:21:00;92.70;;;25.98;;
61385;SDS011;47256;18.904;-99.054;2023-12-29T01:23:28;42.17;;;14.77;;
61385;SDS011;47256;18.904;-99.054;2023-12-29T01:25:55;52.38;;;14.23;;
61385;SDS011;47256;18.904;-99.054;2023-12-29T01:28:22;28.90;;;10.98;;
61385;SDS011;47256;18.904;-99.054;2023-12-29T01:30:49;27.50;;;10.93;;
61385;SDS011;47256;18.904;-99.054;2023-12-29T01:33:17;27.23;;;10.60;;
61385;SDS011;47256;18.904;-99.054;2023-12-29T01:35:48;25.15;;;10.55;;
61385;SDS011;47256;18.904;-99.054;2023-12-29T01:38:15;29.38;;;9.68;;
61385;SDS011;47256;18.904;-99.054;2023-12-29T01:40:43;20.55;;;9.82;;
61385;SDS011;47256;18.904;-99.054;2023-12-29T01:43:14;34.28;;;10.27;;
61385;SDS011;47256;18.904;-99.054;2023-12-29T01:45:42;26.27;;;9.48;;
61385;SDS011;47256;18.904;-99.054;2023-12-29T01:48:09;17.42;;;8.90;;
61385;SDS011;47256;18.904;-99.054;2023-12-29T01:50:40;22.95;;;8.35;;
61385;SDS011;47256;18.904;-99.054;2023-12-29T01:53:08;17.35;;;8.38;;
61385;SDS011;47256;18.904;-99.054;2023-12-29T01:55:36;27.08;;;9.40;;
61385;SDS011;47256;18.904;-99.054;2023-12-29T01:58:04;24.23;;;9.45;;
61385;SDS011;47256;18.904;-99.054;2023-12-29T02:00:31;20.35;;;9.20;;
61385;SDS011;47256;18.904;-99.054;2023-12-29T02:03:24;19.35;;;8.32;;
61385;SDS011;47256;18.904;-99.054;2023-12-29T02:05:53;14.82;;;8.52;;
61385;SDS011;47256;18.904;-99.054;2023-12-29T02:08:22;24.52;;;9.75;;
61385;SDS011;47256;18.904;-99.054;2023-12-29T02:10:51;18.80;;;8.95;;
61385;SDS011;47256;18.904;-99.054;2023-12-29T02:13:19;25.27;;;10.55;;
61385;SDS011;47256;18.904;-99.054;2023-12-29T02:15:49;25.15;;;10.35;;
61385;SDS011;47256;18.904;-99.054;2023-12-29T02:18:21;21.58;;;9.77;;
61385;SDS011;47256;18.904;-99.054;2023-12-29T02:20:51;23.98;;;10.63;;
61385;SDS011;47256;18.904;-99.054;2023-12-29T02:23:18;30.30;;;13.48;;
61385;SDS011;47256;18.904;-99.054;2023-12-29T02:25:46;29.48;;;15.35;;
61385;SDS011;47256;18.904;-99.054;2023-12-29T02:28:25;32.80;;;15.75;;
61385;SDS011;47256;18.904;-99.054;2023-12-29T02:30:56;30.63;;;13.43;;
61385;SDS011;47256;18.904;-99.054;2023-12-29T02:33:31;24.88;;;12.20;;
61385;SDS011;47256;18.904;-99.054;2023-12-29T02:36:09;23.90;;;13.30;;
61385;SDS011;47256;18.904;-99.054;2023-12-29T02:38:39;23.38;;;13.32;;
61385;SDS011;47256;18.904;-99.054;2023-12-29T02:41:06;26.92;;;13.30;;
61385;SDS011;47256;18.904;-99.054;2023-12-29T02:43:34;26.25;;;14.95;;
61385;SDS011;47256;18.904;-99.054;2023-12-29T02:46:03;32.75;;;16.33;;
61385;SDS011;47256;18.904;-99.054;2023-12-29T02:48:31;28.42;;;16.15;;
61385;SDS011;47256;18.904;-99.054;2023-12-29T02:51:04;38.85;;;15.90;;
61385;SDS011;47256;18.904;-99.054;2023-12-29T02:53:32;28.50;;;12.57;;
61385;SDS011;47256;18.904;-99.054;2023-12-29T02:56:00;33.05;;;13.85;;
61385;SDS011;47256;18.904;-99.054;2023-12-29T02:58:27;27.73;;;15.93;;
61385;SDS011;47256;18.904;-99.054;2023-12-29T03:00:54;29.15;;;14.85;;
61385;SDS011;47256;18.904;-99.054;2023-12-29T03:03:23;31.67;;;16.83;;
61385;SDS011;47256;18.904;-99.054;2023-12-29T03:05:50;37.83;;;17.25;;
61385;SDS011;47256;18.904;-99.054;2023-12-29T03:08:19;36.60;;;15.20;;
61385;SDS011;47256;18.904;-99.054;2023-12-29T03:10:46;38.65;;;15.45;;
61385;SDS011;47256;18.904;-99.054;2023-12-29T03:13:14;38.13;;;18.08;;
61385;SDS011;47256;18.904;-99.054;2023-12-29T03:15:41;43.30;;;19.42;;
61385;SDS011;47256;18.904;-99.054;2023-12-29T03:18:09;37.67;;;20.23;;
61385;SDS011;47256;18.904;-99.054;2023-12-29T03:20:36;43.50;;;21.90;;
61385;SDS011;47256;18.904;-99.054;2023-12-29T03:23:04;44.95;;;20.55;;
61385;SDS011;47256;18.904;-99.054;2023-12-29T03:25:32;46.47;;;21.60;;
61385;SDS011;47256;18.904;-99.054;2023-12-29T03:27:59;43.33;;;20.85;;
61385;SDS011;47256;18.904;-99.054;2023-12-29T03:30:26;46.75;;;20.23;;
61385;SDS011;47256;18.904;-99.054;2023-12-29T03:32:53;36.78;;;20.42;;
61385;SDS011;47256;18.904;-99.054;2023-12-29T03:35:21;39.05;;;20.13;;
61385;SDS011;47256;18.904;-99.054;2023-12-29T03:37:49;40.30;;;21.02;;
61385;SDS011;47256;18.904;-99.054;2023-12-29T03:40:17;32.45;;;19.08;;
61385;SDS011;47256;18.904;-99.054;2023-12-29T03:42:44;36.45;;;19.58;;
61385;SDS011;47256;18.904;-99.054;2023-12-29T03:45:12;35.20;;;19.13;;
61385;SDS011;47256;18.904;-99.054;2023-12-29T03:47:39;40.38;;;19.17;;
61385;SDS011;47256;18.904;-99.054;2023-12-29T03:50:07;41.03;;;18.80;;
61385;SDS011;47256;18.904;-99.054;2023-12-29T03:52:35;44.05;;;20.73;;
61385;SDS011;47256;18.904;-99.054;2023-12-29T03:55:03;35.40;;;17.70;;
61385;SDS011;47256;18.904;-99.054;2023-12-29T03:57:31;33.33;;;18.73;;
61385;SDS011;47256;18.904;-99.054;2023-12-29T04:00:00;39.80;;;20.52;;
61385;SDS011;47256;18.904;-99.054;2023-12-29T04:02:37;45.60;;;19.02;;
61385;SDS011;47256;18.904;-99.054;2023-12-29T04:05:08;29.92;;;17.63;;
61385;SDS011;47256;18.904;-99.054;2023-12-29T04:07:36;37.10;;;19.05;;
61385;SDS011;47256;18.904;-99.054;2023-12-29T04:10:07;37.17;;;16.40;;
61385;SDS011;47256;18.904;-99.054;2023-12-29T04:12:35;39.78;;;17.70;;
61385;SDS011;47256;18.904;-99.054;2023-12-29T04:15:03;31.33;;;15.27;;
61385;SDS011;47256;18.904;-99.054;2023-12-29T04:17:31;29.08;;;16.52;;
61385;SDS011;47256;18.904;-99.054;2023-12-29T04:19:58;25.70;;;14.80;;
61385;SDS011;47256;18.904;-99.054;2023-12-29T04:22:25;27.13;;;16.92;;
61385;SDS011;47256;18.904;-99.054;2023-12-29T04:24:53;25.33;;;14.20;;
61385;SDS011;47256;18.904;-99.054;2023-12-29T04:27:21;30.20;;;15.65;;
61385;SDS011;47256;18.904;-99.054;2023-12-29T04:29:48;28.95;;;15.55;;
61385;SDS011;47256;18.904;-99.054;2023-12-29T04:32:15;37.10;;;16.95;;
61385;SDS011;47256;18.904;-99.054;2023-12-29T04:34:46;36.15;;;16.80;;
61385;SDS011;47256;18.904;-99.054;2023-12-29T04:37:16;45.30;;;18.75;;
61385;SDS011;47256;18.904;-99.054;2023-12-29T04:39:43;41.50;;;19.00;;
61385;SDS011;47256;18.904;-99.054;2023-12-29T04:42:10;44.22;;;20.80;;
61385;SDS011;47256;18.904;-99.054;2023-12-29T04:44:38;41.20;;;19.67;;
61385;SDS011;47256;18.904;-99.054;2023-12-29T04:47:05;39.65;;;18.95;;
61385;SDS011;47256;18.904;-99.054;2023-12-29T04:49:34;41.63;;;18.80;;
61385;SDS011;47256;18.904;-99.054;2023-12-29T04:52:02;41.30;;;20.17;;
61385;SDS011;47256;18.904;-99.054;2023-12-29T04:54:29;38.60;;;18.73;;
61385;SDS011;47256;18.904;-99.054;2023-12-29T04:56:56;54.90;;;20.02;;
61385;SDS011;47256;18.904;-99.054;2023-12-29T04:59:24;51.35;;;19.52;;
61385;SDS011;47256;18.904;-99.054;2023-12-29T05:01:51;54.03;;;20.40;;
61385;SDS011;47256;18.904;-99.054;2023-12-29T05:04:20;43.00;;;21.27;;
61385;SDS011;47256;18.904;-99.054;2023-12-29T05:06:48;41.55;;;20.50;;
61385;SDS011;47256;18.904;-99.054;2023-12-29T05:09:16;44.47;;;21.17;;
61385;SDS011;47256;18.904;-99.054;2023-12-29T05:11:44;50.35;;;20.77;;
61385;SDS011;47256;18.904;-99.054;2023-12-29T05:14:12;41.72;;;19.15;;
61385;SDS011;47256;18.904;-99.054;2023-12-29T05:16:39;43.72;;;21.88;;
61385;SDS011;47256;18.904;-99.054;2023-12-29T05:19:10;44.85;;;21.85;;
61385;SDS011;47256;18.904;-99.054;2023-12-29T05:21:37;38.35;;;21.98;;
61385;SDS011;47256;18.904;-99.054;2023-12-29T05:24:05;38.67;;;21.90;;
61385;SDS011;47256;18.904;-99.054;2023-12-29T05:26:32;46.42;;;20.90;;
61385;SDS011;47256;18.904;-99.054;2023-12-29T05:28:59;39.45;;;19.83;;
61385;SDS011;47256;18.904;-99.054;2023-12-29T05:31:26;45.85;;;20.05;;
61385;SDS011;47256;18.904;-99.054;2023-12-29T05:33:55;45.33;;;20.95;;
61385;SDS011;47256;18.904;-99.054;2023-12-29T05:36:23;35.80;;;20.45;;
61385;SDS011;47256;18.904;-99.054;2023-12-29T05:38:50;38.92;;;20.17;;
61385;SDS011;47256;18.904;-99.054;2023-12-29T05:41:18;34.25;;;18.38;;
61385;SDS011;47256;18.904;-99.054;2023-12-29T05:43:48;35.35;;;18.85;;
61385;SDS011;47256;18.904;-99.054;2023-12-29T05:46:15;37.75;;;20.80;;
61385;SDS011;47256;18.904;-99.054;2023-12-29T05:48:42;39.70;;;19.33;;
61385;SDS011;47256;18.904;-99.054;2023-12-29T05:51:11;38.92;;;19.45;;
61385;SDS011;47256;18.904;-99.054;2023-12-29T05:53:40;34.10;;;19.42;;
61385;SDS011;47256;18.904;-99.054;2023-12-29T05:56:07;37.17;;;19.17;;
61385;SDS011;47256;18.904;-99.054;2023-12-29T05:58:35;37.22;;;18.98;;
61385;SDS011;47256;18.904;-99.054;2023-12-29T06:01:07;41.33;;;18.73;;
61385;SDS011;47256;18.904;-99.054;2023-12-29T06:03:35;30.48;;;19.27;;
61385;SDS011;47256;18.904;-99.054;2023-12-29T06:06:03;32.75;;;18.50;;
61385;SDS011;47256;18.904;-99.054;2023-12-29T06:08:31;40.17;;;19.30;;
61385;SDS011;47256;18.904;-99.054;2023-12-29T06:10:59;27.65;;;16.73;;
61385;SDS011;47256;18.904;-99.054;2023-12-29T06:13:27;32.70;;;16.08;;
61385;SDS011;47256;18.904;-99.054;2023-12-29T06:15:55;30.27;;;16.58;;
61385;SDS011;47256;18.904;-99.054;2023-12-29T06:18:24;27.95;;;16.55;;
61385;SDS011;47256;18.904;-99.054;2023-12-29T06:20:51;28.27;;;15.88;;
61385;SDS011;47256;18.904;-99.054;2023-12-29T06:23:18;32.10;;;16.02;;
61385;SDS011;47256;18.904;-99.054;2023-12-29T06:25:46;35.00;;;16.25;;
61385;SDS011;47256;18.904;-99.054;2023-12-29T06:28:13;31.23;;;15.82;;
61385;SDS011;47256;18.904;-99.054;2023-12-29T06:30:41;33.97;;;15.52;;
61385;SDS011;47256;18.904;-99.054;2023-12-29T06:33:08;29.27;;;16.10;;
61385;SDS011;47256;18.904;-99.054;2023-12-29T06:35:36;26.77;;;15.93;;
61385;SDS011;47256;18.904;-99.054;2023-12-29T06:38:05;30.77;;;16.05;;
61385;SDS011;47256;18.904;-99.054;2023-12-29T06:40:32;27.30;;;15.43;;
61385;SDS011;47256;18.904;-99.054;2023-12-29T06:43:00;32.83;;;16.58;;
61385;SDS011;47256;18.904;-99.054;2023-12-29T06:45:27;38.00;;;19.13;;
61385;SDS011;47256;18.904;-99.054;2023-12-29T06:47:54;30.33;;;17.40;;
61385;SDS011;47256;18.904;-99.054;2023-12-29T06:50:23;29.50;;;17.08;;
61385;SDS011;47256;18.904;-99.054;2023-12-29T06:52:51;28.40;;;15.85;;
61385;SDS011;47256;18.904;-99.054;2023-12-29T06:55:18;35.35;;;16.02;;
61385;SDS011;47256;18.904;-99.054;2023-12-29T06:57:46;25.13;;;15.00;;
61385;SDS011;47256;18.904;-99.054;2023-12-29T07:00:13;29.67;;;16.25;;
61385;SDS011;47256;18.904;-99.054;2023-12-29T07:02:40;28.77;;;15.77;;
61385;SDS011;47256;18.904;-99.054;2023-12-29T07:05:11;24.25;;;15.63;;
61385;SDS011;47256;18.904;-99.054;2023-12-29T07:07:38;25.42;;;14.45;;
61385;SDS011;47256;18.904;-99.054;2023-12-29T07:10:08;23.05;;;14.57;;
61385;SDS011;47256;18.904;-99.054;2023-12-29T07:12:42;26.70;;;14.00;;
61385;SDS011;47256;18.904;-99.054;2023-12-29T07:15:10;26.08;;;14.45;;
61385;SDS011;47256;18.904;-99.054;2023-12-29T07:17:39;29.67;;;13.88;;
61385;SDS011;47256;18.904;-99.054;2023-12-29T07:20:07;24.60;;;13.13;;
61385;SDS011;47256;18.904;-99.054;2023-12-29T07:22:35;24.65;;;13.80;;
61385;SDS011;47256;18.904;-99.054;2023-12-29T07:25:03;19.17;;;12.80;;
61385;SDS011;47256;18.904;-99.054;2023-12-29T07:27:34;25.35;;;13.32;;
61385;SDS011;47256;18.904;-99.054;2023-12-29T07:30:02;23.58;;;12.65;;
61385;SDS011;47256;18.904;-99.054;2023-12-29T07:32:30;22.92;;;12.75;;
61385;SDS011;47256;18.904;-99.054;2023-12-29T07:34:57;22.98;;;12.10;;
61385;SDS011;47256;18.904;-99.054;2023-12-29T07:37:26;20.83;;;12.50;;
61385;SDS011;47256;18.904;-99.054;2023-12-29T07:39:54;19.45;;;11.00;;
61385;SDS011;47256;18.904;-99.054;2023-12-29T07:42:21;25.40;;;13.25;;
61385;SDS011;47256;18.904;-99.054;2023-12-29T07:44:48;20.92;;;12.48;;
61385;SDS011;47256;18.904;-99.054;2023-12-29T07:47:17;25.60;;;12.90;;
61385;SDS011;47256;18.904;-99.054;2023-12-29T07:49:45;18.58;;;11.60;;
61385;SDS011;47256;18.904;-99.054;2023-12-29T07:52:13;22.38;;;12.23;;
61385;SDS011;47256;18.904;-99.054;2023-12-29T07:54:40;14.90;;;10.65;;
61385;SDS011;47256;18.904;-99.054;2023-12-29T07:57:07;19.48;;;11.73;;
61385;SDS011;47256;18.904;-99.054;2023-12-29T07:59:35;23.55;;;12.52;;
61385;SDS011;47256;18.904;-99.054;2023-12-29T08:02:03;21.70;;;11.63;;
61385;SDS011;47256;18.904;-99.054;2023-12-29T08:04:31;21.20;;;12.35;;
61385;SDS011;47256;18.904;-99.054;2023-12-29T08:06:59;24.98;;;13.95;;
61385;SDS011;47256;18.904;-99.054;2023-12-29T08:09:26;24.02;;;12.98;;
61385;SDS011;47256;18.904;-99.054;2023-12-29T08:11:54;24.65;;;13.00;;
61385;SDS011;47256;18.904;-99.054;2023-12-29T08:14:22;22.70;;;14.60;;
61385;SDS011;47256;18.904;-99.054;2023-12-29T08:16:49;23.52;;;13.98;;
61385;SDS011;47256;18.904;-99.054;2023-12-29T08:19:16;26.73;;;14.73;;
61385;SDS011;47256;18.904;-99.054;2023-12-29T08:21:43;25.98;;;14.50;;
61385;SDS011;47256;18.904;-99.054;2023-12-29T08:24:11;27.73;;;14.13;;
61385;SDS011;47256;18.904;-99.054;2023-12-29T08:26:44;22.70;;;14.70;;
61385;SDS011;47256;18.904;-99.054;2023-12-29T08:29:13;27.42;;;16.33;;
61385;SDS011;47256;18.904;-99.054;2023-12-29T08:31:44;25.95;;;15.20;;
61385;SDS011;47256;18.904;-99.054;2023-12-29T08:34:12;20.27;;;14.32;;
61385;SDS011;47256;18.904;-99.054;2023-12-29T08:36:43;20.77;;;13.40;;
61385;SDS011;47256;18.904;-99.054;2023-12-29T08:39:10;20.45;;;14.05;;
61385;SDS011;47256;18.904;-99.054;2023-12-29T08:41:38;26.63;;;13.75;;
61385;SDS011;47256;18.904;-99.054;2023-12-29T08:44:05;21.77;;;12.82;;
61385;SDS011;47256;18.904;-99.054;2023-12-29T08:46:32;24.40;;;13.60;;
61385;SDS011;47256;18.904;-99.054;2023-12-29T08:48:59;20.33;;;12.88;;
61385;SDS011;47256;18.904;-99.054;2023-12-29T08:51:28;20.13;;;12.95;;
61385;SDS011;47256;18.904;-99.054;2023-12-29T08:53:56;18.70;;;12.07;;
61385;SDS011;47256;18.904;-99.054;2023-12-29T08:56:23;18.08;;;12.02;;
61385;SDS011;47256;18.904;-99.054;2023-12-29T08:58:50;17.70;;;10.70;;
61385;SDS011;47256;18.904;-99.054;2023-12-29T09:01:19;16.55;;;10.63;;
61385;SDS011;47256;18.904;-99.054;2023-12-29T09:03:46;25.92;;;11.85;;
61385;SDS011;47256;18.904;-99.054;2023-12-29T09:06:14;19.33;;;11.35;;
61385;SDS011;47256;18.904;-99.054;2023-12-29T09:08:42;19.75;;;11.35;;
61385;SDS011;47256;18.904;-99.054;2023-12-29T09:11:10;15.93;;;11.70;;
61385;SDS011;47256;18.904;-99.054;2023-12-29T09:13:37;16.20;;;11.63;;
61385;SDS011;47256;18.904;-99.054;2023-12-29T09:16:04;22.83;;;11.73;;
61385;SDS011;47256;18.904;-99.054;2023-12-29T09:18:32;20.13;;;11.10;;
61385;SDS011;47256;18.904;-99.054;2023-12-29T09:20:59;21.92;;;12.05;;
61385;SDS011;47256;18.904;-99.054;2023-12-29T09:23:26;16.35;;;10.95;;
61385;SDS011;47256;18.904;-99.054;2023-12-29T09:25:54;20.33;;;11.85;;
61385;SDS011;47256;18.904;-99.054;2023-12-29T09:28:21;17.98;;;10.80;;
61385;SDS011;47256;18.904;-99.054;2023-12-29T09:30:49;15.30;;;10.20;;
61385;SDS011;47256;18.904;-99.054;2023-12-29T09:33:16;15.70;;;10.88;;
61385;SDS011;47256;18.904;-99.054;2023-12-29T09:35:44;16.65;;;10.55;;
61385;SDS011;47256;18.904;-99.054;2023-12-29T09:38:12;20.35;;;10.35;;
61385;SDS011;47256;18.904;-99.054;2023-12-29T09:40:42;15.95;;;8.40;;
61385;SDS011;47256;18.904;-99.054;2023-12-29T09:43:09;13.05;;;9.43;;
61385;SDS011;47256;18.904;-99.054;2023-12-29T09:45:38;15.95;;;9.23;;
61385;SDS011;47256;18.904;-99.054;2023-12-29T09:48:13;15.10;;;9.43;;
61385;SDS011;47256;18.904;-99.054;2023-12-29T09:50:45;17.33;;;9.32;;
61385;SDS011;47256;18.904;-99.054;2023-12-29T09:53:16;19.35;;;11.07;;
61385;SDS011;47256;18.904;-99.054;2023-12-29T09:55:46;16.52;;;9.68;;
61385;SDS011;47256;18.904;-99.054;2023-12-29T09:58:16;12.90;;;8.85;;
61385;SDS011;47256;18.904;-99.054;2023-12-29T10:00:46;12.65;;;7.28;;
61385;SDS011;47256;18.904;-99.054;2023-12-29T10:03:16;11.25;;;7.85;;
61385;SDS011;47256;18.904;-99.054;2023-12-29T10:05:44;11.10;;;7.68;;
61385;SDS011;47256;18.904;-99.054;2023-12-29T10:08:17;14.80;;;8.27;;
61385;SDS011;47256;18.904;-99.054;2023-12-29T10:10:48;13.02;;;7.82;;
61385;SDS011;47256;18.904;-99.054;2023-12-29T10:13:17;12.23;;;8.25;;
61385;SDS011;47256;18.904;-99.054;2023-12-29T10:21:29;11.20;;;7.70;;
61385;SDS011;47256;18.904;-99.054;2023-12-29T10:24:09;12.68;;;7.10;;
61385;SDS011;47256;18.904;-99.054;2023-12-29T10:26:48;10.23;;;6.63;;
61385;SDS011;47256;18.904;-99.054;2023-12-29T10:29:16;8.35;;;5.97;;
61385;SDS011;47256;18.904;-99.054;2023-12-29T10:31:46;12.02;;;6.60;;
61385;SDS011;47256;18.904;-99.054;2023-12-29T10:34:31;11.43;;;6.55;;
61385;SDS011;47256;18.904;-99.054;2023-12-29T10:37:01;8.70;;;6.35;;
61385;SDS011;47256;18.904;-99.054;2023-12-29T10:39:35;9.07;;;6.70;;
61385;SDS011;47256;18.904;-99.054;2023-12-29T10:42:05;17.45;;;7.00;;
61385;SDS011;47256;18.904;-99.054;2023-12-29T10:44:34;12.73;;;6.53;;
61385;SDS011;47256;18.904;-99.054;2023-12-29T10:47:09;13.48;;;8.55;;
61385;SDS011;47256;18.904;-99.054;2023-12-29T10:49:37;30.73;;;19.08;;
61385;SDS011;47256;18.904;-99.054;2023-12-29T10:52:15;27.33;;;17.55;;
61385;SDS011;47256;18.904;-99.054;2023-12-29T10:57:11;23.13;;;13.05;;
61385;SDS011;47256;18.904;-99.054;2023-12-29T10:59:39;20.65;;;11.68;;
61385;SDS011;47256;18.904;-99.054;2023-12-29T11:02:06;16.90;;;11.70;;
61385;SDS011;47256;18.904;-99.054;2023-12-29T11:04:42;20.83;;;11.85;;
61385;SDS011;47256;18.904;-99.054;2023-12-29T11:07:11;14.40;;;10.02;;
61385;SDS011;47256;18.904;-99.054;2023-12-29T11:09:39;17.88;;;10.68;;
61385;SDS011;47256;18.904;-99.054;2023-12-29T11:12:07;15.02;;;10.73;;
61385;SDS011;47256;18.904;-99.054;2023-12-29T11:14:39;15.00;;;10.10;;
61385;SDS011;47256;18.904;-99.054;2023-12-29T11:17:11;13.77;;;9.48;;
61385;SDS011;47256;18.904;-99.054;2023-12-29T11:19:42;14.30;;;9.25;;
61385;SDS011;47256;18.904;-99.054;2023-12-29T11:22:13;13.15;;;8.70;;
61385;SDS011;47256;18.904;-99.054;2023-12-29T11:24:45;11.98;;;8.57;;
61385;SDS011;47256;18.904;-99.054;2023-12-29T11:27:15;10.75;;;7.85;;
61385;SDS011;47256;18.904;-99.054;2023-12-29T11:29:43;10.45;;;6.72;;
61385;SDS011;47256;18.904;-99.054;2023-12-29T11:32:17;11.23;;;7.35;;
61385;SDS011;47256;18.904;-99.054;2023-12-29T11:34:56;12.75;;;7.15;;
61385;SDS011;47256;18.904;-99.054;2023-12-29T11:40:37;10.27;;;6.97;;
61385;SDS011;47256;18.904;-99.054;2023-12-29T11:43:15;9.73;;;6.10;;
61385;SDS011;47256;18.904;-99.054;2023-12-29T11:45:43;11.25;;;6.32;;
61385;SDS011;47256;18.904;-99.054;2023-12-29T11:48:12;13.73;;;5.90;;
61385;SDS011;47256;18.904;-99.054;2023-12-29T11:53:32;17.80;;;7.40;;
61385;SDS011;47256;18.904;-99.054;2023-12-29T11:56:00;11.40;;;6.18;;
61385;SDS011;47256;18.904;-99.054;2023-12-29T11:58:27;9.65;;;6.80;;
61385;SDS011;47256;18.904;-99.054;2023-12-29T12:00:55;10.35;;;6.40;;
61385;SDS011;47256;18.904;-99.054;2023-12-29T12:03:24;13.98;;;7.22;;
61385;SDS011;47256;18.904;-99.054;2023-12-29T12:05:55;10.85;;;6.38;;
61385;SDS011;47256;18.904;-99.054;2023-12-29T12:08:30;10.02;;;5.97;;
61385;SDS011;47256;18.904;-99.054;2023-12-29T12:13:56;9.63;;;6.32;;
61385;SDS011;47256;18.904;-99.054;2023-12-29T12:19:12;9.52;;;6.00;;
61385;SDS011;47256;18.904;-99.054;2023-12-29T12:21:41;11.23;;;6.55;;
61385;SDS011;47256;18.904;-99.054;2023-12-29T12:24:11;13.23;;;6.70;;
61385;SDS011;47256;18.904;-99.054;2023-12-29T12:26:38;8.88;;;6.18;;
61385;SDS011;47256;18.904;-99.054;2023-12-29T12:29:07;8.40;;;5.45;;
61385;SDS011;47256;18.904;-99.054;2023-12-29T12:31:35;11.52;;;5.28;;
61385;SDS011;47256;18.904;-99.054;2023-12-29T12:34:02;18.95;;;6.72;;
61385;SDS011;47256;18.904;-99.054;2023-12-29T12:36:35;17.38;;;7.15;;
61385;SDS011;47256;18.904;-99.054;2023-12-29T12:39:16;13.73;;;5.95;;
61385;SDS011;47256;18.904;-99.054;2023-12-29T12:41:44;9.77;;;6.35;;
61385;SDS011;47256;18.904;-99.054;2023-12-29T12:44:15;9.13;;;6.13;;
61385;SDS011;47256;18.904;-99.054;2023-12-29T12:49:24;12.93;;;6.30;;
61385;SDS011;47256;18.904;-99.054;2023-12-29T12:51:51;17.48;;;6.18;;
61385;SDS011;47256;18.904;-99.054;2023-12-29T12:54:20;10.82;;;5.85;;
61385;SDS011;47256;18.904;-99.054;2023-12-29T12:56:49;11.10;;;6.00;;
61385;SDS011;47256;18.904;-99.054;2023-12-29T12:59:17;15.82;;;7.20;;
61385;SDS011;47256;18.904;-99.054;2023-12-29T13:01:44;13.80;;;6.95;;
61385;SDS011;47256;18.904;-99.054;2023-12-29T13:04:15;12.68;;;6.68;;
61385;SDS011;47256;18.904;-99.054;2023-12-29T13:06:43;11.63;;;6.88;;
61385;SDS011;47256;18.904;-99.054;2023-12-29T13:09:12;14.57;;;7.00;;
61385;SDS011;47256;18.904;-99.054;2023-12-29T13:11:45;15.23;;;6.50;;
61385;SDS011;47256;18.904;-99.054;2023-12-29T13:14:19;11.73;;;5.55;;
61385;SDS011;47256;18.904;-99.054;2023-12-29T13:16:48;10.45;;;6.07;;
61385;SDS011;47256;18.904;-99.054;2023-12-29T13:21:48;13.88;;;5.47;;
61385;SDS011;47256;18.904;-99.054;2023-12-29T13:24:22;14.82;;;6.47;;
61385;SDS011;47256;18.904;-99.054;2023-12-29T13:27:04;11.10;;;6.22;;
61385;SDS011;47256;18.904;-99.054;2023-12-29T13:29:34;13.45;;;5.25;;
61385;SDS011;47256;18.904;-99.054;2023-12-29T13:32:21;11.18;;;6.13;;
61385;SDS011;47256;18.904;-99.054;2023-12-29T13:34:56;13.32;;;6.03;;
61385;SDS011;47256;18.904;-99.054;2023-12-29T13:37:43;12.30;;;5.35;;
61385;SDS011;47256;18.904;-99.054;2023-12-29T13:40:38;11.82;;;5.93;;
61385;SDS011;47256;18.904;-99.054;2023-12-29T13:43:28;9.73;;;6.07;;
61385;SDS011;47256;18.904;-99.054;2023-12-29T13:45:58;15.23;;;5.13;;
61385;SDS011;47256;18.904;-99.054;2023-12-29T13:48:27;25.27;;;6.55;;
61385;SDS011;47256;18.904;-99.054;2023-12-29T13:50:56;14.00;;;5.85;;
61385;SDS011;47256;18.904;-99.054;2023-12-29T13:53:23;21.13;;;7.57;;
61385;SDS011;47256;18.904;-99.054;2023-12-29T13:55:50;23.83;;;9.77;;
61385;SDS011;47256;18.904;-99.054;2023-12-29T13:58:18;16.23;;;6.22;;
61385;SDS011;47256;18.904;-99.054;2023-12-29T14:00:45;13.02;;;6.43;;
61385;SDS011;47256;18.904;-99.054;2023-12-29T14:03:23;20.42;;;8.32;;
61385;SDS011;47256;18.904;-99.054;2023-12-29T14:06:03;14.00;;;5.82;;
61385;SDS011;47256;18.904;-99.054;2023-12-29T14:08:41;10.65;;;5.95;;
61385;SDS011;47256;18.904;-99.054;2023-12-29T14:11:12;21.70;;;5.57;;
61385;SDS011;47256;18.904;-99.054;2023-12-29T14:13:42;14.27;;;5.35;;
61385;SDS011;47256;18.904;-99.054;2023-12-29T14:16:14;8.52;;;4.70;;
61385;SDS011;47256;18.904;-99.054;2023-12-29T14:21:21;8.23;;;5.47;;
61385;SDS011;47256;18.904;-99.054;2023-12-29T14:23:59;20.15;;;7.72;;
61385;SDS011;47256;18.904;-99.054;2023-12-29T14:26:27;20.55;;;7.78;;
61385;SDS011;47256;18.904;-99.054;2023-12-29T14:34:03;28.27;;;9.75;;
61385;SDS011;47256;18.904;-99.054;2023-12-29T14:36:32;37.10;;;14.63;;
61385;SDS011;47256;18.904;-99.054;2023-12-29T14:39:01;26.42;;;12.50;;
61385;SDS011;47256;18.904;-99.054;2023-12-29T14:41:31;34.95;;;13.32;;
61385;SDS011;47256;18.904;-99.054;2023-12-29T14:43:58;37.40;;;12.70;;
61385;SDS011;47256;18.904;-99.054;2023-12-29T14:46:26;38.67;;;16.27;;